Strona główna
METAR-TAF:

METAR-TAF

Lotnisko :

Grant County Airport

Petersburg, Wirginia Zachodnia, Stany Zjednoczone

Szerokość geograficzna: 38-59N, Długość geograficzna: 079-08W, wysokość: 293 m

Aktualna obserwacja pogody

Raport powstał 15 minut temu, godzina 17:55 UTC
Cisza
Temperatura 25°C
Wilgotność 79%
Ciśnienie 1012 hPa
Widzialność: 16.1 km
Rozproszone chmury na wysokości 2300 ft
Rozproszone chmury na wysokości 3900 ft
Przerywane chmury na wysokości 11000 ft

METAR: KW99 241755Z AUTO 00000KT 10SM SCT023 SCT039 BKN110 25/21 A2988 RMK AO2 LTG DSNT SE P0002 60003 T02520210 10290 20189

czas: 14:10 (18:10 UTC)


TAF: brakujący

Obserwacja i prognoza pogody dla ponad 4000 lotnisk (raport METAR i TAF).

Dostępne stacje oznaczono żółtymi i czerwonymi punktami na mapie.

Najedź kursorem aby zobaczyć nazwę stacji.

Kliknij aby zobaczyć obserwacje i prognozy pogody.

Aby zmienić mapę: kliknij na zielony przycisk z czarnym krzyżykiem, aby powiększyć; na zielony przycisk z myślnikiem, aby pomniejszyć; na zielone strzałki, aby przejść do map sąsiednich.


METAR-TAF: